createdAt,value
2019-03-26T09:30:50.795Z,4.83
2019-03-26T09:31:57.817Z,4.87
2019-03-26T09:33:05.240Z,4.89
2019-03-26T09:34:14.536Z,4.92
2019-03-26T09:36:00.176Z,4.93
2019-03-26T09:37:33.073Z,4.90
2019-03-26T09:38:39.787Z,4.90
2019-03-26T09:39:48.448Z,4.94
2019-03-26T09:40:54.633Z,4.94
2019-03-26T09:42:00.900Z,4.96
2019-03-26T09:43:07.311Z,4.95
2019-03-26T09:44:15.896Z,5.01
2019-03-26T09:45:53.412Z,5.12
2019-03-26T09:47:00.786Z,5.24
2019-03-26T09:48:47.409Z,5.40
2019-03-26T09:50:29.258Z,5.43
2019-03-26T09:52:00.162Z,5.49
2019-03-26T09:53:45.803Z,5.37
2019-03-26T09:57:26.630Z,5.25
2019-03-26T09:58:33.217Z,5.25
2019-03-26T10:00:12.338Z,5.30
2019-03-26T10:01:20.459Z,5.35
2019-03-26T10:02:26.162Z,5.35
2019-03-26T10:03:32.501Z,5.29
2019-03-26T10:04:57.774Z,5.30
2019-03-26T10:06:47.872Z,5.33
2019-03-26T10:08:33.200Z,5.41
2019-03-26T10:10:20.370Z,5.67
2019-03-26T10:12:07.034Z,5.87
2019-03-26T10:13:55.143Z,5.91
2019-03-26T10:15:43.125Z,5.73
2019-03-26T10:17:32.659Z,5.68
2019-03-26T10:19:20.587Z,5.65
2019-03-26T10:21:06.872Z,5.60
2019-03-26T10:22:54.095Z,5.49
2019-03-26T10:24:00.489Z,5.46
2019-03-26T10:25:11.344Z,5.48
2019-03-26T10:26:18.530Z,5.53
2019-03-26T10:27:42.464Z,5.66
2019-03-26T10:28:48.891Z,5.74
2019-03-26T10:30:14.618Z,5.73
2019-03-26T10:31:21.954Z,5.75
2019-03-26T10:32:29.580Z,5.75
2019-03-26T10:33:46.988Z,5.76
2019-03-26T10:35:35.535Z,5.82
2019-03-26T10:36:41.825Z,5.88
2019-03-26T10:37:48.869Z,5.80
2019-03-26T10:39:05.166Z,5.68
2019-03-26T10:40:40.683Z,5.60
2019-03-26T10:42:23.290Z,5.51
2019-03-26T10:44:10.665Z,5.29
2019-03-26T10:45:58.415Z,5.20
2019-03-26T10:47:46.466Z,5.16
2019-03-26T10:49:32.071Z,5.07
2019-03-26T10:51:18.795Z,5.05
2019-03-26T10:52:34.244Z,4.95
2019-03-26T10:53:42.553Z,4.91
2019-03-26T10:54:48.307Z,4.86
2019-03-26T10:56:33.980Z,4.77
2019-03-26T10:57:46.904Z,4.71
2019-03-26T10:58:52.787Z,4.66
2019-03-26T11:00:07.989Z,4.60
2019-03-26T11:01:14.519Z,4.56
2019-03-26T11:02:53.901Z,4.55
2019-03-26T11:04:37.849Z,4.56
2019-03-26T11:06:23.486Z,4.57
2019-03-26T11:08:11.617Z,4.58
2019-03-26T11:09:59.905Z,4.64
2019-03-26T11:11:46.387Z,4.66
2019-03-26T11:13:35.011Z,4.82
2019-03-26T11:15:24.731Z,5.05
2019-03-26T11:17:13.281Z,5.29
2019-03-26T11:18:58.775Z,5.48
2019-03-26T11:20:47.241Z,5.68
2019-03-26T11:22:33.271Z,5.83
2019-03-26T11:24:20.091Z,5.94
2019-03-26T11:26:03.563Z,6.10
2019-03-26T11:27:30.626Z,6.30
2019-03-26T11:28:37.263Z,6.44
2019-03-26T11:29:46.159Z,6.47
2019-03-26T11:30:51.897Z,6.51
2019-03-26T11:31:58.326Z,6.54
2019-03-26T11:33:04.949Z,6.59
2019-03-26T11:34:11.989Z,6.59
2019-03-26T11:35:19.659Z,6.58
2019-03-26T11:36:25.409Z,6.61
2019-03-26T11:37:31.475Z,6.55
2019-03-26T11:39:09.567Z,6.51
2019-03-26T11:40:55.143Z,6.46
2019-03-26T11:42:41.135Z,6.45
2019-03-26T11:44:27.923Z,6.55
2019-03-26T11:46:15.599Z,6.60
2019-03-26T11:48:02.462Z,6.73
2019-03-26T11:49:49.463Z,6.97
2019-03-26T11:51:36.015Z,7.04
2019-03-26T11:53:24.137Z,6.93
2019-03-26T11:54:30.581Z,6.84
2019-03-26T11:56:12.545Z,6.70
2019-03-26T11:57:18.300Z,6.63
2019-03-26T11:58:45.516Z,6.51
2019-03-26T11:59:51.899Z,6.44
2019-03-26T12:01:31.363Z,6.41
2019-03-26T12:02:37.691Z,6.36
2019-03-26T12:04:01.830Z,6.29
2019-03-26T12:05:31.586Z,6.29
2019-03-26T12:07:19.925Z,6.30
2019-03-26T12:09:07.491Z,6.32
2019-03-26T12:59:11.547Z,5.61
2019-03-26T13:00:26.585Z,5.64
2019-03-26T13:01:32.363Z,5.65
2019-03-26T13:02:40.107Z,5.64
2019-03-26T13:03:46.231Z,5.63
2019-03-26T13:04:53.707Z,5.66
2019-03-26T13:06:01.122Z,5.66
2019-03-26T13:07:08.177Z,5.68
2019-03-26T13:08:14.097Z,5.69
2019-03-26T13:09:19.979Z,5.71
2019-03-26T13:10:26.074Z,5.72
2019-03-26T13:11:34.049Z,5.72
2019-03-26T13:12:40.096Z,5.70
2019-03-26T13:13:46.256Z,5.70
2019-03-26T13:14:52.254Z,5.72
2019-03-26T13:16:00.130Z,5.73
2019-03-26T13:17:06.553Z,5.75
2019-03-26T13:18:13.880Z,5.75
2019-03-26T13:19:20.002Z,5.77
2019-03-26T13:20:25.953Z,5.78
2019-03-26T13:21:33.729Z,5.83
2019-03-26T13:22:40.091Z,5.87
2019-03-26T13:23:46.782Z,5.93
2019-03-26T13:24:53.000Z,5.98
2019-03-26T13:25:59.255Z,6.03
2019-03-26T13:27:06.628Z,6.08
2019-03-26T13:28:12.618Z,6.11
2019-03-26T13:29:18.971Z,6.16
2019-03-26T13:30:25.313Z,6.21
2019-03-26T13:31:31.339Z,6.25
2019-03-26T13:32:37.399Z,6.32
2019-03-26T13:33:43.559Z,6.38
2019-03-26T13:34:49.821Z,6.45
2019-03-26T13:35:56.861Z,6.48
2019-03-26T13:37:02.822Z,6.53
2019-03-26T13:38:08.959Z,6.59
2019-03-26T13:39:15.207Z,6.63
2019-03-26T13:40:27.089Z,6.65
2019-03-26T13:41:29.879Z,6.68
2019-03-26T13:42:37.994Z,6.71
2019-03-26T13:43:44.351Z,6.77
2019-03-26T13:44:50.584Z,6.83
2019-03-26T13:45:56.716Z,6.89
2019-03-26T13:47:02.969Z,6.92
2019-03-26T13:48:09.070Z,6.93
2019-03-26T13:49:15.195Z,6.88
2019-03-26T13:50:21.473Z,6.86
2019-03-26T13:51:27.411Z,6.83
2019-03-26T13:52:33.671Z,6.83
2019-03-26T13:53:39.930Z,6.79
2019-03-26T13:54:45.990Z,6.79
2019-03-26T13:55:52.524Z,6.78
2019-03-26T13:56:58.573Z,6.80
2019-03-26T13:58:04.958Z,6.81
2019-03-26T13:59:11.063Z,6.83
2019-03-26T14:00:20.397Z,6.81
2019-03-26T14:01:26.761Z,6.77
2019-03-26T14:02:32.906Z,6.73
2019-03-26T14:03:38.892Z,6.72
2019-03-26T14:04:45.046Z,6.73
2019-03-26T14:05:51.121Z,6.71
2019-03-26T14:06:57.125Z,6.68
2019-03-26T14:08:03.518Z,6.69
2019-03-26T14:09:10.206Z,6.65
2019-03-26T14:10:16.526Z,6.62
2019-03-26T14:11:22.722Z,6.59
2019-03-26T14:12:28.645Z,6.55
2019-03-26T14:13:35.006Z,6.52
2019-03-26T14:14:41.252Z,6.52
2019-03-26T14:15:47.395Z,6.51
2019-03-26T14:16:53.795Z,6.51
2019-03-26T14:18:00.319Z,6.49
2019-03-26T14:19:06.575Z,6.48
2019-03-26T14:20:12.739Z,6.42
2019-03-26T14:21:18.792Z,6.38
2019-03-26T14:22:25.960Z,6.34
2019-03-26T14:23:31.950Z,6.34
2019-03-26T14:24:37.821Z,6.35
2019-03-26T14:25:43.901Z,6.34
2019-03-26T14:26:50.245Z,6.29
2019-03-26T14:27:56.487Z,6.19
2019-03-26T14:29:02.812Z,5.99
2019-03-26T14:30:11.630Z,5.83
2019-03-26T14:31:17.731Z,5.71
2019-03-26T14:32:24.005Z,5.61
2019-03-26T14:33:30.255Z,5.54
2019-03-26T14:34:36.567Z,5.45
2019-03-26T14:35:44.144Z,5.41
2019-03-26T14:36:50.464Z,5.35
2019-03-26T14:37:56.569Z,5.30
2019-03-26T14:39:02.750Z,5.24
2019-03-26T14:40:09.853Z,5.21
2019-03-26T14:41:18.059Z,5.17
2019-03-26T14:42:24.158Z,5.18
2019-03-26T14:43:30.439Z,5.15
2019-03-26T14:44:36.821Z,5.14
2019-03-26T14:45:43.171Z,5.14
2019-03-26T14:46:50.699Z,5.15
2019-03-26T14:47:56.979Z,5.15
2019-03-26T14:49:03.443Z,5.15
2019-03-26T14:50:09.749Z,5.15
2019-03-26T14:51:15.995Z,5.19
2019-03-26T14:52:22.188Z,5.24
2019-03-26T14:53:28.532Z,5.27
2019-03-26T14:54:34.893Z,5.30
2019-03-26T14:55:42.201Z,5.34
2019-03-26T14:56:48.465Z,5.39
2019-03-26T14:57:54.669Z,5.40
2019-03-26T14:59:00.869Z,5.41
2019-03-26T15:00:11.236Z,5.45
2019-03-26T15:01:18.617Z,5.51
2019-03-26T15:02:24.877Z,5.54
2019-03-26T15:03:30.818Z,5.58
2019-03-26T15:04:37.000Z,5.62
2019-03-26T15:05:47.097Z,5.65
2019-03-26T15:06:53.485Z,5.66
2019-03-26T15:07:59.789Z,5.68
2019-03-26T15:09:08.401Z,5.69
2019-03-26T15:10:15.897Z,5.72
2019-03-26T15:11:23.757Z,5.78
2019-03-26T15:12:30.103Z,5.79
2019-03-26T15:13:36.343Z,5.82
2019-03-26T15:14:42.665Z,5.82
2019-03-26T15:15:50.315Z,5.83
2019-03-26T15:16:56.827Z,5.86
2019-03-26T15:18:03.420Z,5.96
2019-03-26T15:19:09.986Z,6.02
2019-03-26T15:20:16.383Z,6.05
2019-03-26T15:21:23.712Z,6.10
2019-03-26T15:22:31.245Z,6.11
2019-03-26T15:23:37.636Z,6.15
2019-03-26T15:24:46.104Z,6.11
2019-03-26T15:25:54.345Z,6.12
2019-03-26T15:27:01.100Z,6.13
2019-03-26T15:28:07.444Z,6.16
2019-03-26T15:29:13.595Z,6.16
2019-03-26T15:30:20.015Z,6.16
2019-03-26T15:31:26.516Z,6.17
2019-03-26T15:32:32.829Z,6.15
2019-03-26T15:33:38.990Z,6.16
2019-03-26T15:34:45.422Z,6.16
2019-03-26T15:35:51.675Z,6.21
2019-03-26T15:36:57.969Z,6.28
2019-03-26T15:38:05.684Z,6.31
2019-03-26T15:39:12.006Z,6.35
2019-03-26T15:40:18.614Z,6.38
2019-03-26T15:41:25.332Z,6.35
2019-03-26T15:42:31.615Z,6.32
2019-03-26T15:43:38.039Z,6.29
2019-03-26T15:44:45.611Z,6.25
2019-03-26T15:45:53.851Z,6.21
2019-03-26T15:47:00.102Z,6.18
2019-03-26T15:48:07.930Z,6.17
2019-03-26T15:49:17.933Z,6.13
2019-03-26T15:50:39.562Z,6.12
2019-03-26T15:51:47.470Z,6.10
2019-03-26T15:52:53.823Z,6.08
2019-03-26T15:54:00.210Z,6.07
2019-03-26T15:55:08.178Z,6.05
2019-03-26T15:56:14.454Z,6.01
2019-03-26T15:57:20.743Z,5.98
2019-03-26T15:58:26.958Z,5.95
2019-03-26T15:59:33.291Z,5.92
2019-03-26T16:00:40.415Z,5.91
2019-03-26T16:01:46.732Z,5.90
2019-03-26T16:02:52.940Z,5.91
2019-03-26T16:03:59.470Z,5.90
2019-03-26T16:05:07.588Z,5.91
2019-03-26T16:06:27.559Z,5.90
2019-03-26T16:07:33.902Z,5.90
2019-03-26T16:08:40.216Z,5.90
2019-03-26T16:09:48.464Z,5.89
2019-03-26T16:10:56.469Z,5.87
2019-03-26T16:12:02.909Z,5.86
2019-03-26T16:13:09.362Z,5.86
2019-03-26T16:14:15.824Z,5.87
2019-03-26T16:15:22.263Z,5.85
2019-03-26T16:16:28.576Z,5.83
2019-03-26T16:17:34.952Z,5.83
2019-03-26T16:18:41.136Z,5.77
2019-03-26T16:19:49.104Z,5.73
2019-03-26T16:20:56.253Z,5.64
2019-03-26T16:22:02.475Z,5.57
2019-03-26T16:23:08.667Z,5.50
2019-03-26T16:24:14.889Z,5.42
2019-03-26T16:25:23.175Z,5.36
2019-03-26T16:26:29.548Z,5.31
2019-03-26T16:27:35.735Z,5.21
2019-03-26T16:28:42.135Z,5.14
2019-03-26T16:29:49.054Z,5.05
2019-03-26T16:30:55.285Z,4.97
2019-03-26T16:32:02.804Z,4.92
2019-03-26T16:33:09.168Z,4.87
2019-03-26T16:34:15.498Z,4.84
2019-03-26T16:35:23.095Z,4.78
2019-03-26T16:36:29.526Z,4.77
2019-03-26T16:37:35.929Z,4.72
2019-03-26T16:38:42.250Z,4.67
2019-03-26T16:39:48.785Z,4.61
2019-03-26T16:40:55.363Z,4.57
2019-03-26T16:42:01.719Z,4.53
2019-03-26T16:43:09.852Z,4.49
2019-03-26T16:44:22.160Z,4.47
2019-03-26T16:45:28.465Z,4.46
2019-03-26T16:46:36.418Z,4.45
2019-03-26T16:47:42.837Z,4.40
2019-03-26T16:48:49.271Z,4.34
2019-03-26T16:49:55.727Z,4.31
2019-03-26T16:51:06.686Z,4.27
2019-03-26T16:52:13.793Z,4.28
2019-03-26T16:53:20.176Z,4.27
2019-03-26T16:54:26.627Z,4.23
2019-03-26T16:55:33.186Z,4.20
2019-03-26T16:56:39.861Z,4.18
2019-03-26T16:57:46.451Z,4.17
2019-03-26T16:58:56.385Z,4.17
2019-03-26T17:00:05.247Z,4.13
2019-03-26T17:01:15.035Z,4.10
2019-03-26T17:02:21.761Z,4.04
2019-03-26T17:03:31.604Z,4.03
2019-03-26T17:04:47.107Z,3.99
2019-03-26T17:05:54.064Z,3.96
2019-03-26T17:07:00.968Z,3.91
2019-03-26T17:08:15.547Z,3.89
2019-03-26T17:09:24.840Z,3.86
2019-03-26T17:10:43.481Z,3.83
2019-03-26T17:12:02.639Z,3.80
2019-03-26T17:13:08.153Z,3.75
2019-03-26T17:14:15.334Z,3.67
2019-03-26T17:15:24.465Z,3.63
2019-03-26T17:16:31.553Z,3.61
2019-03-26T17:17:38.245Z,3.57
2019-03-26T17:18:44.741Z,3.55
2019-03-26T17:19:51.213Z,3.52
2019-03-26T17:20:57.920Z,3.46
2019-03-26T17:22:04.657Z,3.43
2019-03-26T17:23:12.592Z,3.39
2019-03-26T17:24:19.479Z,3.33
2019-03-26T17:25:26.070Z,3.28
2019-03-26T17:26:32.937Z,3.24
2019-03-26T17:27:47.063Z,3.21
2019-03-26T17:28:54.311Z,3.18
2019-03-26T17:30:01.199Z,3.16
2019-03-26T17:31:08.000Z,3.13
2019-03-26T17:32:14.885Z,3.12
2019-03-26T17:34:08.847Z,3.09
2019-03-26T17:34:39.228Z,3.06
2019-03-26T17:35:48.629Z,3.03
2019-03-26T17:36:58.167Z,2.98
2019-03-26T17:38:11.025Z,2.95
2019-03-26T17:43:28.649Z,2.86
2019-03-26T17:44:35.115Z,2.79
2019-03-26T17:45:41.517Z,2.76
2019-03-26T17:48:13.087Z,2.73
2019-03-26T17:49:19.737Z,2.66
2019-03-26T17:50:26.178Z,2.65
2019-03-26T17:51:32.674Z,2.62
2019-03-26T17:52:39.081Z,2.60
2019-03-26T17:53:45.566Z,2.57
2019-03-26T17:54:52.169Z,2.55
2019-03-26T17:55:58.873Z,2.53
2019-03-26T17:57:06.787Z,2.52
2019-03-26T17:58:13.228Z,2.51
2019-03-26T17:59:20.694Z,2.49
2019-03-26T18:00:44.271Z,2.47
2019-03-26T18:01:54.355Z,2.45
2019-03-26T18:02:59.253Z,2.44
2019-03-26T18:04:05.656Z,2.41
2019-03-26T18:05:29.581Z,2.39
2019-03-26T18:06:36.099Z,2.35
2019-03-26T18:07:42.739Z,2.31
2019-03-26T18:08:50.265Z,2.29
2019-03-26T18:09:57.717Z,2.25
2019-03-26T18:11:04.677Z,2.22
2019-03-26T18:12:11.069Z,2.17
2019-03-26T18:13:17.491Z,2.15
2019-03-26T18:14:23.922Z,2.11
2019-03-26T18:15:30.481Z,2.10
2019-03-26T18:16:36.836Z,2.06
2019-03-26T18:17:43.238Z,2.02
2019-03-26T18:18:49.785Z,2.01
2019-03-26T18:19:56.259Z,1.97
2019-03-26T18:21:02.681Z,1.89
2019-03-26T18:22:09.325Z,1.87
2019-03-26T18:23:15.721Z,1.81
2019-03-26T18:24:22.469Z,1.76
2019-03-26T18:25:28.891Z,1.74
2019-03-26T18:26:35.489Z,1.72
2019-03-26T18:27:41.784Z,1.70
2019-03-26T18:28:48.353Z,1.69
2019-03-26T18:29:54.723Z,1.65
2019-03-26T18:31:02.681Z,1.63
2019-03-26T18:32:09.028Z,1.58
2019-03-26T18:33:15.485Z,1.57
2019-03-26T18:34:21.980Z,1.55
2019-03-26T18:35:29.946Z,1.48
2019-03-26T18:36:36.394Z,1.46
2019-03-26T18:37:42.841Z,1.44
2019-03-26T18:38:49.671Z,1.40
2019-03-26T18:39:55.994Z,1.40
2019-03-26T18:41:02.353Z,1.38
2019-03-26T18:42:11.093Z,1.39
2019-03-26T18:43:18.056Z,1.35
2019-03-26T18:44:26.753Z,1.34
2019-03-26T18:45:33.867Z,1.36
2019-03-26T18:46:40.321Z,1.37
2019-03-26T18:47:46.659Z,1.38
2019-03-26T18:48:54.345Z,1.33
2019-03-26T18:50:00.707Z,1.27
2019-03-26T18:51:09.453Z,1.24
2019-03-26T18:52:16.743Z,1.21
2019-03-26T18:53:24.565Z,1.23
2019-03-26T18:54:30.955Z,1.23
2019-03-26T18:55:37.560Z,1.22
2019-03-26T18:56:45.307Z,1.24
2019-03-26T18:57:51.940Z,1.24
2019-03-26T18:58:59.553Z,1.22
2019-03-26T19:00:12.905Z,1.23
2019-03-26T19:01:20.859Z,1.24
2019-03-26T19:02:27.308Z,1.23
2019-03-26T19:03:33.579Z,1.21
2019-03-26T19:04:40.107Z,1.23
2019-03-26T19:05:46.595Z,1.25
2019-03-26T19:06:52.926Z,1.27
2019-03-26T19:08:00.310Z,1.31
2019-03-26T19:09:07.612Z,1.32
2019-03-26T19:10:26.828Z,1.35
2019-03-26T19:11:34.799Z,1.38
2019-03-26T19:12:42.217Z,1.44
2019-03-26T19:13:48.622Z,1.44
2019-03-26T19:14:54.899Z,1.45
2019-03-26T19:16:01.272Z,1.45
2019-03-26T19:17:09.008Z,1.46
2019-03-26T19:18:17.483Z,1.47
2019-03-26T19:19:25.220Z,1.45
2019-03-26T19:20:31.671Z,1.46
2019-03-26T19:21:38.369Z,1.47
2019-03-26T19:22:44.976Z,1.53
2019-03-26T19:24:03.522Z,1.53
2019-03-26T19:25:00.793Z,1.54
2019-03-26T19:26:08.207Z,1.56
2019-03-26T19:27:14.468Z,1.58
2019-03-26T19:28:20.875Z,1.59
2019-03-26T19:29:27.116Z,1.61
2019-03-26T19:30:33.518Z,1.62
2019-03-26T19:31:39.827Z,1.62
2019-03-26T19:32:47.698Z,1.62
2019-03-26T19:33:55.194Z,1.60
2019-03-26T19:35:01.594Z,1.61
2019-03-26T19:36:08.115Z,1.59
2019-03-26T19:37:14.426Z,1.53
2019-03-26T19:38:20.769Z,1.56
2019-03-26T19:39:27.198Z,1.57
2019-03-26T19:40:34.630Z,1.57
2019-03-26T19:41:42.335Z,1.56
2019-03-26T19:42:48.633Z,1.55
2019-03-26T19:43:55.005Z,1.52
2019-03-26T19:45:01.327Z,1.48
2019-03-26T19:46:07.768Z,1.46
2019-03-26T19:47:16.497Z,1.46
2019-03-26T19:48:22.871Z,1.44
2019-03-26T19:49:29.188Z,1.40
2019-03-26T19:50:35.624Z,1.38
2019-03-26T19:51:43.435Z,1.38
2019-03-26T19:52:50.857Z,1.35
2019-03-26T19:53:57.321Z,1.34
2019-03-26T19:55:06.902Z,1.27
2019-03-26T19:56:14.529Z,1.23
2019-03-26T19:57:25.924Z,1.23
2019-03-26T19:58:57.252Z,1.27
2019-03-26T20:00:28.483Z,1.23
2019-03-26T20:01:47.036Z,1.21
2019-03-26T20:02:53.469Z,1.23
2019-03-26T20:04:08.370Z,1.22
2019-03-26T20:05:14.770Z,1.17
2019-03-26T20:06:21.826Z,1.15
2019-03-26T20:07:28.794Z,1.14
2019-03-26T20:08:35.061Z,1.10
2019-03-26T20:09:42.327Z,1.05
2019-03-26T20:10:48.760Z,1.08
2019-03-26T20:11:55.232Z,1.02
2019-03-26T20:13:02.994Z,0.96
2019-03-26T20:14:09.319Z,0.89
2019-03-26T20:15:16.420Z,0.82
2019-03-26T20:16:27.095Z,0.79
2019-03-26T20:17:32.005Z,0.74
2019-03-26T20:18:38.338Z,0.68
2019-03-26T20:19:45.727Z,0.65
2019-03-26T20:20:52.796Z,0.61
2019-03-26T20:21:59.168Z,0.63
2019-03-26T20:23:05.488Z,0.58
2019-03-26T20:24:11.812Z,0.52
2019-03-26T20:25:19.824Z,0.48
2019-03-26T20:26:28.776Z,0.43
2019-03-26T20:27:35.103Z,0.39
2019-03-26T20:28:43.369Z,0.34
2019-03-26T20:29:51.162Z,0.32
2019-03-26T20:30:57.465Z,0.31
2019-03-26T20:32:03.796Z,0.28
2019-03-26T20:33:10.170Z,0.26
2019-03-26T20:34:17.988Z,0.23
2019-03-26T20:35:24.946Z,0.23
2019-03-26T20:36:31.323Z,0.21
2019-03-26T20:37:37.617Z,0.18
2019-03-26T20:38:43.854Z,0.14
2019-03-26T20:51:19.532Z,-0.12
2019-03-26T20:52:25.821Z,-0.18
2019-03-26T20:53:32.106Z,-0.20
2019-03-26T20:54:40.689Z,-0.22
2019-03-26T20:55:54.230Z,-0.27
2019-03-26T20:56:54.972Z,-0.30
2019-03-26T20:58:01.232Z,-0.31
2019-03-26T20:59:08.585Z,-0.34
2019-03-26T21:00:18.173Z,-0.39
2019-03-26T21:01:24.869Z,-0.42
2019-03-26T21:02:31.204Z,-0.43
2019-03-26T21:03:37.672Z,-0.43
2019-03-26T21:04:44.491Z,-0.42
2019-03-26T21:05:51.332Z,-0.45
2019-03-26T21:07:00.385Z,-0.43
2019-03-26T21:08:06.999Z,-0.43
2019-03-26T21:09:13.280Z,-0.43
2019-03-26T21:10:20.741Z,-0.46
2019-03-26T21:11:27.093Z,-0.43
2019-03-26T21:12:33.427Z,-0.43
2019-03-26T21:13:50.194Z,-0.41
2019-03-26T21:14:47.653Z,-0.40
2019-03-26T21:15:57.415Z,-0.40
2019-03-26T21:17:01.822Z,-0.42
2019-03-26T21:18:08.119Z,-0.42
2019-03-26T21:19:15.439Z,-0.43
2019-03-26T21:20:21.634Z,-0.43
2019-03-26T21:21:27.983Z,-0.44
2019-03-26T21:22:36.733Z,-0.46
2019-03-26T21:23:43.051Z,-0.47
2019-03-26T21:24:49.464Z,-0.46
2019-03-26T21:25:55.730Z,-0.46
2019-03-26T21:27:01.998Z,-0.43
2019-03-26T21:28:08.331Z,-0.44
2019-03-26T21:29:14.589Z,-0.46
2019-03-26T21:30:20.868Z,-0.46
2019-03-26T21:31:27.245Z,-0.49
2019-03-26T21:32:34.596Z,-0.49
2019-03-26T21:33:41.033Z,-0.50
2019-03-26T21:34:48.540Z,-0.48
2019-03-26T21:35:55.079Z,-0.51
2019-03-26T21:37:01.540Z,-0.52
2019-03-26T21:38:07.539Z,-0.56
2019-03-26T21:39:14.104Z,-0.59
2019-03-26T21:40:20.467Z,-0.63
2019-03-26T21:41:27.343Z,-0.67
2019-03-26T21:42:33.561Z,-0.69
2019-03-26T21:43:39.601Z,-0.72
2019-03-26T21:44:45.867Z,-0.70
2019-03-26T21:45:52.046Z,-0.73
2019-03-26T21:46:58.375Z,-0.70
2019-03-26T21:48:07.628Z,-0.67
2019-03-26T21:49:13.706Z,-0.64
2019-03-26T21:50:19.823Z,-0.67
2019-03-26T21:51:26.307Z,-0.66
2019-03-26T21:52:32.543Z,-0.64
2019-03-26T21:53:38.384Z,-0.61
2019-03-26T21:54:44.339Z,-0.61
2019-03-26T21:55:51.316Z,-0.62
2019-03-26T21:56:57.366Z,-0.59
2019-03-26T21:58:03.269Z,-0.56
2019-03-26T21:59:09.136Z,-0.57
2019-03-26T22:00:15.166Z,-0.58
2019-03-26T22:01:21.245Z,-0.58
2019-03-26T22:02:27.271Z,-0.59
2019-03-26T22:03:34.799Z,-0.59
2019-03-26T22:04:40.492Z,-0.57
2019-03-26T22:05:47.913Z,-0.57
2019-03-26T22:06:53.923Z,-0.56
2019-03-26T22:07:59.815Z,-0.55
2019-03-26T22:09:07.629Z,-0.56
2019-03-26T22:10:14.953Z,-0.55
2019-03-26T22:11:20.692Z,-0.55
2019-03-26T22:12:26.427Z,-0.52
2019-03-26T22:13:32.147Z,-0.51
2019-03-26T22:14:37.893Z,-0.52
2019-03-26T22:15:43.602Z,-0.53
2019-03-26T22:16:49.325Z,-0.52
2019-03-26T22:17:55.188Z,-0.52
2019-03-26T22:19:01.052Z,-0.54
2019-03-26T22:20:09.507Z,-0.57
2019-03-26T22:21:15.386Z,-0.57
2019-03-26T22:22:21.651Z,-0.53
2019-03-26T22:23:27.637Z,-0.52
2019-03-26T22:24:33.386Z,-0.53
2019-03-26T22:25:39.237Z,-0.54
2019-03-26T22:26:45.133Z,-0.53
2019-03-26T22:27:50.984Z,-0.49
2019-03-26T22:28:56.743Z,-0.49
2019-03-26T22:30:02.559Z,-0.52
2019-03-26T22:31:09.429Z,-0.53
2019-03-26T22:32:15.254Z,-0.51
2019-03-26T22:33:20.951Z,-0.48
2019-03-26T22:34:26.815Z,-0.47
2019-03-26T22:35:34.757Z,-0.49
2019-03-26T22:36:40.488Z,-0.51
2019-03-26T22:37:46.186Z,-0.50
2019-03-26T22:38:51.946Z,-0.51
2019-03-26T22:39:57.750Z,-0.53
2019-03-26T22:41:03.536Z,-0.52
2019-03-26T22:42:09.366Z,-0.51
2019-03-26T22:43:15.119Z,-0.48
2019-03-26T22:44:30.842Z,-0.50
2019-03-26T22:45:28.355Z,-0.49
2019-03-26T22:46:36.321Z,-0.50
2019-03-26T22:47:42.025Z,-0.51
2019-03-26T22:48:47.799Z,-0.52
2019-03-26T22:49:53.537Z,-0.52
2019-03-26T22:50:59.542Z,-0.52
2019-03-26T22:52:05.335Z,-0.54
2019-03-26T22:53:11.137Z,-0.53
2019-03-26T22:54:18.496Z,-0.57
2019-03-26T22:55:24.957Z,-0.57
2019-03-26T22:56:30.805Z,-0.55
2019-03-26T22:57:36.844Z,-0.55
2019-03-26T22:58:42.655Z,-0.56
2019-03-26T22:59:48.487Z,-0.55
2019-03-26T23:00:55.369Z,-0.54
2019-03-26T23:02:02.662Z,-0.55
2019-03-26T23:03:09.537Z,-0.53
2019-03-26T23:04:15.456Z,-0.54
2019-03-26T23:05:21.333Z,-0.54
2019-03-26T23:06:27.795Z,-0.55
2019-03-26T23:07:33.533Z,-0.56
2019-03-26T23:08:39.312Z,-0.56
2019-03-26T23:09:45.095Z,-0.56
2019-03-26T23:10:50.965Z,-0.55
2019-03-26T23:11:57.889Z,-0.54
2019-03-26T23:13:04.699Z,-0.56
2019-03-26T23:14:11.522Z,-0.56
2019-03-26T23:15:21.771Z,-0.56
2019-03-26T23:16:27.515Z,-0.55
2019-03-26T23:17:33.298Z,-0.56
2019-03-26T23:18:39.081Z,-0.57
2019-03-26T23:19:44.907Z,-0.59
2019-03-26T23:20:50.653Z,-0.59
2019-03-26T23:21:57.498Z,-0.60
2019-03-26T23:23:03.356Z,-0.60
2019-03-26T23:24:09.139Z,-0.58
2019-03-26T23:25:15.553Z,-0.64
2019-03-26T23:26:21.409Z,-0.59
2019-03-26T23:27:27.516Z,-0.60
2019-03-26T23:28:33.434Z,-0.60
2019-03-26T23:29:39.282Z,-0.61
2019-03-26T23:30:45.138Z,-0.63
2019-03-26T23:31:50.927Z,-0.63
2019-03-26T23:32:56.757Z,-0.64
2019-03-26T23:34:04.643Z,-0.65
2019-03-26T23:35:10.531Z,-0.65
2019-03-26T23:36:16.292Z,-0.66
2019-03-26T23:37:21.983Z,-0.66
2019-03-26T23:38:28.773Z,-0.67
2019-03-26T23:39:34.573Z,-0.67
2019-03-26T23:40:40.268Z,-0.66
2019-03-26T23:41:45.991Z,-0.64
2019-03-26T23:42:51.723Z,-0.65
2019-03-26T23:43:57.522Z,-0.65
2019-03-26T23:45:03.261Z,-0.65
2019-03-26T23:46:09.079Z,-0.67
2019-03-26T23:47:14.795Z,-0.68
2019-03-26T23:48:20.793Z,-0.69
2019-03-26T23:49:26.483Z,-0.70
2019-03-26T23:50:32.335Z,-0.69
2019-03-26T23:51:39.127Z,-0.70
2019-03-26T23:52:44.950Z,-0.70
2019-03-26T23:53:50.686Z,-0.70
2019-03-26T23:54:56.493Z,-0.70
2019-03-26T23:56:02.263Z,-0.71
2019-03-26T23:57:08.012Z,-0.72
2019-03-26T23:58:13.925Z,-0.74
2019-03-26T23:59:19.797Z,-0.74
